sensor_id;sensor_type;location;lat;lon;timestamp;temperature;humidity
19924;DHT22;10124;53.068;18.224;2022-08-19T00:01:37;19.50;99.90
19924;DHT22;10124;53.068;18.224;2022-08-19T00:04:08;19.50;99.90
19924;DHT22;10124;53.068;18.224;2022-08-19T00:06:39;19.50;99.90
19924;DHT22;10124;53.068;18.224;2022-08-19T00:09:08;19.50;99.90
19924;DHT22;10124;53.068;18.224;2022-08-19T00:11:37;19.50;99.90
19924;DHT22;10124;53.068;18.224;2022-08-19T00:14:07;19.50;99.90
19924;DHT22;10124;53.068;18.224;2022-08-19T00:16:37;19.40;99.90
19924;DHT22;10124;53.068;18.224;2022-08-19T00:19:08;19.40;99.90
19924;DHT22;10124;53.068;18.224;2022-08-19T00:21:39;19.40;1.00
19924;DHT22;10124;53.068;18.224;2022-08-19T00:24:11;19.40;99.90
19924;DHT22;10124;53.068;18.224;2022-08-19T00:26:40;19.40;1.00
19924;DHT22;10124;53.068;18.224;2022-08-19T00:29:10;19.30;1.00
19924;DHT22;10124;53.068;18.224;2022-08-19T00:31:40;19.80;1.00
19924;DHT22;10124;53.068;18.224;2022-08-19T00:34:10;19.50;99.90
19924;DHT22;10124;53.068;18.224;2022-08-19T00:36:40;19.30;1.00
19924;DHT22;10124;53.068;18.224;2022-08-19T00:39:08;19.20;99.90
19924;DHT22;10124;53.068;18.224;2022-08-19T00:41:37;19.20;1.00
19924;DHT22;10124;53.068;18.224;2022-08-19T00:44:18;19.10;1.00
19924;DHT22;10124;53.068;18.224;2022-08-19T00:46:55;19.10;1.00
19924;DHT22;10124;53.068;18.224;2022-08-19T00:49:31;19.10;1.00
19924;DHT22;10124;53.068;18.224;2022-08-19T00:52:07;19.10;1.00
19924;DHT22;10124;53.068;18.224;2022-08-19T00:54:37;19.00;1.00
19924;DHT22;10124;53.068;18.224;2022-08-19T00:57:09;19.00;1.00
19924;DHT22;10124;53.068;18.224;2022-08-19T00:59:37;19.00;1.00
19924;DHT22;10124;53.068;18.224;2022-08-19T01:02:26;19.00;1.00
19924;DHT22;10124;53.068;18.224;2022-08-19T01:04:55;18.90;1.00
19924;DHT22;10124;53.068;18.224;2022-08-19T01:07:22;18.80;99.90
19924;DHT22;10124;53.068;18.224;2022-08-19T01:09:50;18.80;99.90
19924;DHT22;10124;53.068;18.224;2022-08-19T01:12:18;18.80;99.90
19924;DHT22;10124;53.068;18.224;2022-08-19T01:14:46;18.80;1.00
19924;DHT22;10124;53.068;18.224;2022-08-19T01:17:15;18.70;99.90
19924;DHT22;10124;53.068;18.224;2022-08-19T01:19:43;18.80;1.00
19924;DHT22;10124;53.068;18.224;2022-08-19T01:22:31;18.80;1.00
19924;DHT22;10124;53.068;18.224;2022-08-19T01:25:02;18.80;1.00
19924;DHT22;10124;53.068;18.224;2022-08-19T01:27:47;18.80;1.00
19924;DHT22;10124;53.068;18.224;2022-08-19T01:30:29;18.80;1.00
19924;DHT22;10124;53.068;18.224;2022-08-19T01:32:58;18.70;1.00
19924;DHT22;10124;53.068;18.224;2022-08-19T01:35:28;18.70;1.00
19924;DHT22;10124;53.068;18.224;2022-08-19T01:38:00;18.70;1.00
19924;DHT22;10124;53.068;18.224;2022-08-19T01:40:31;18.60;86.00
19924;DHT22;10124;53.068;18.224;2022-08-19T01:43:00;18.60;99.90
19924;DHT22;10124;53.068;18.224;2022-08-19T01:45:28;18.50;1.00
19924;DHT22;10124;53.068;18.224;2022-08-19T01:47:57;18.60;99.90
19924;DHT22;10124;53.068;18.224;2022-08-19T01:50:30;18.60;99.90
19924;DHT22;10124;53.068;18.224;2022-08-19T01:52:59;18.50;99.90
19924;DHT22;10124;53.068;18.224;2022-08-19T01:55:36;18.50;58.80
19924;DHT22;10124;53.068;18.224;2022-08-19T01:58:13;18.40;1.00
19924;DHT22;10124;53.068;18.224;2022-08-19T02:00:42;18.40;99.90
19924;DHT22;10124;53.068;18.224;2022-08-19T02:03:10;18.40;99.90
19924;DHT22;10124;53.068;18.224;2022-08-19T02:05:42;18.40;99.90
19924;DHT22;10124;53.068;18.224;2022-08-19T02:08:11;18.40;99.90
19924;DHT22;10124;53.068;18.224;2022-08-19T02:10:42;18.40;99.90
19924;DHT22;10124;53.068;18.224;2022-08-19T02:13:12;18.80;99.90
19924;DHT22;10124;53.068;18.224;2022-08-19T02:15:41;18.40;99.90
19924;DHT22;10124;53.068;18.224;2022-08-19T02:18:08;18.30;99.90
19924;DHT22;10124;53.068;18.224;2022-08-19T02:20:37;18.30;99.90
19924;DHT22;10124;53.068;18.224;2022-08-19T02:23:07;18.30;99.90
19924;DHT22;10124;53.068;18.224;2022-08-19T02:25:43;18.30;99.90
19924;DHT22;10124;53.068;18.224;2022-08-19T02:28:11;18.30;99.90
19924;DHT22;10124;53.068;18.224;2022-08-19T02:30:46;18.30;99.90
19924;DHT22;10124;53.068;18.224;2022-08-19T02:33:14;18.30;99.90
19924;DHT22;10124;53.068;18.224;2022-08-19T02:35:44;18.30;99.90
19924;DHT22;10124;53.068;18.224;2022-08-19T02:38:13;18.30;99.90
19924;DHT22;10124;53.068;18.224;2022-08-19T02:40:58;18.20;99.90
19924;DHT22;10124;53.068;18.224;2022-08-19T02:43:27;18.30;99.90
19924;DHT22;10124;53.068;18.224;2022-08-19T02:46:00;18.10;99.90
19924;DHT22;10124;53.068;18.224;2022-08-19T02:48:28;18.80;1.00
19924;DHT22;10124;53.068;18.224;2022-08-19T02:50:55;18.20;99.90
19924;DHT22;10124;53.068;18.224;2022-08-19T02:53:24;18.10;99.90
19924;DHT22;10124;53.068;18.224;2022-08-19T02:55:52;18.10;99.90
19924;DHT22;10124;53.068;18.224;2022-08-19T02:58:20;18.20;1.00
19924;DHT22;10124;53.068;18.224;2022-08-19T03:00:54;18.20;99.90
19924;DHT22;10124;53.068;18.224;2022-08-19T03:03:21;18.30;1.00
19924;DHT22;10124;53.068;18.224;2022-08-19T03:05:49;18.20;1.00
19924;DHT22;10124;53.068;18.224;2022-08-19T03:08:24;18.20;1.00
19924;DHT22;10124;53.068;18.224;2022-08-19T03:10:52;18.30;1.00
19924;DHT22;10124;53.068;18.224;2022-08-19T03:13:21;18.20;1.00
19924;DHT22;10124;53.068;18.224;2022-08-19T03:15:48;18.20;1.00
19924;DHT22;10124;53.068;18.224;2022-08-19T03:18:16;18.30;1.00
19924;DHT22;10124;53.068;18.224;2022-08-19T03:20:50;18.30;1.00
19924;DHT22;10124;53.068;18.224;2022-08-19T03:23:19;18.30;1.00
19924;DHT22;10124;53.068;18.224;2022-08-19T03:25:48;18.30;1.00
19924;DHT22;10124;53.068;18.224;2022-08-19T03:28:30;18.30;1.00
19924;DHT22;10124;53.068;18.224;2022-08-19T03:31:02;18.20;1.00
19924;DHT22;10124;53.068;18.224;2022-08-19T03:33:51;18.20;1.00
19924;DHT22;10124;53.068;18.224;2022-08-19T03:36:22;18.20;1.00
19924;DHT22;10124;53.068;18.224;2022-08-19T03:38:52;18.20;1.00
19924;DHT22;10124;53.068;18.224;2022-08-19T03:41:36;18.10;1.00
19924;DHT22;10124;53.068;18.224;2022-08-19T03:44:10;18.10;1.00
19924;DHT22;10124;53.068;18.224;2022-08-19T03:46:50;18.10;1.00
19924;DHT22;10124;53.068;18.224;2022-08-19T03:49:19;18.20;1.00
19924;DHT22;10124;53.068;18.224;2022-08-19T03:51:55;18.20;1.00
19924;DHT22;10124;53.068;18.224;2022-08-19T03:54:24;18.20;1.00
19924;DHT22;10124;53.068;18.224;2022-08-19T03:56:54;18.20;1.00
19924;DHT22;10124;53.068;18.224;2022-08-19T03:59:28;18.20;1.00
19924;DHT22;10124;53.068;18.224;2022-08-19T04:01:57;18.20;1.00
19924;DHT22;10124;53.068;18.224;2022-08-19T04:04:26;18.90;1.00
19924;DHT22;10124;53.068;18.224;2022-08-19T04:06:56;18.20;1.00
19924;DHT22;10124;53.068;18.224;2022-08-19T04:09:24;18.30;1.00
19924;DHT22;10124;53.068;18.224;2022-08-19T04:11:56;18.40;1.00
19924;DHT22;10124;53.068;18.224;2022-08-19T04:14:28;18.40;1.00
19924;DHT22;10124;53.068;18.224;2022-08-19T04:16:59;18.40;1.00
19924;DHT22;10124;53.068;18.224;2022-08-19T04:19:29;18.50;1.00
19924;DHT22;10124;53.068;18.224;2022-08-19T04:21:56;18.50;1.00
19924;DHT22;10124;53.068;18.224;2022-08-19T04:24:27;18.50;1.00
19924;DHT22;10124;53.068;18.224;2022-08-19T04:26:55;18.60;1.00
19924;DHT22;10124;53.068;18.224;2022-08-19T04:29:24;18.60;1.00
19924;DHT22;10124;53.068;18.224;2022-08-19T04:31:55;18.70;1.00
19924;DHT22;10124;53.068;18.224;2022-08-19T04:34:26;18.80;1.00
19924;DHT22;10124;53.068;18.224;2022-08-19T04:36:56;18.90;1.00
19924;DHT22;10124;53.068;18.224;2022-08-19T04:39:29;19.00;1.00
19924;DHT22;10124;53.068;18.224;2022-08-19T04:42:18;19.00;1.00
19924;DHT22;10124;53.068;18.224;2022-08-19T04:45:13;19.10;1.00
19924;DHT22;10124;53.068;18.224;2022-08-19T04:47:44;19.20;1.00
19924;DHT22;10124;53.068;18.224;2022-08-19T04:50:26;19.20;1.00
19924;DHT22;10124;53.068;18.224;2022-08-19T04:52:53;19.20;1.00
19924;DHT22;10124;53.068;18.224;2022-08-19T04:55:24;19.30;1.00
19924;DHT22;10124;53.068;18.224;2022-08-19T04:57:54;19.90;1.00
19924;DHT22;10124;53.068;18.224;2022-08-19T05:00:22;19.30;1.00
19924;DHT22;10124;53.068;18.224;2022-08-19T05:02:49;19.40;1.00
19924;DHT22;10124;53.068;18.224;2022-08-19T05:05:17;19.40;1.00
19924;DHT22;10124;53.068;18.224;2022-08-19T05:07:45;19.50;1.00
19924;DHT22;10124;53.068;18.224;2022-08-19T05:10:12;19.80;1.00
19924;DHT22;10124;53.068;18.224;2022-08-19T05:12:41;19.60;1.00
19924;DHT22;10124;53.068;18.224;2022-08-19T05:15:08;19.70;1.00
19924;DHT22;10124;53.068;18.224;2022-08-19T05:17:37;19.80;1.00
19924;DHT22;10124;53.068;18.224;2022-08-19T05:20:07;19.90;1.00
19924;DHT22;10124;53.068;18.224;2022-08-19T05:22:53;20.00;1.00
19924;DHT22;10124;53.068;18.224;2022-08-19T05:25:22;20.20;1.00
19924;DHT22;10124;53.068;18.224;2022-08-19T05:27:52;20.30;1.00
19924;DHT22;10124;53.068;18.224;2022-08-19T05:30:19;20.50;1.00
19924;DHT22;10124;53.068;18.224;2022-08-19T05:33:08;20.50;1.00
19924;DHT22;10124;53.068;18.224;2022-08-19T05:35:38;20.60;1.00
19924;DHT22;10124;53.068;18.224;2022-08-19T05:38:06;20.80;1.00
19924;DHT22;10124;53.068;18.224;2022-08-19T05:40:35;20.90;1.00
19924;DHT22;10124;53.068;18.224;2022-08-19T05:43:05;21.10;1.00
19924;DHT22;10124;53.068;18.224;2022-08-19T05:45:37;21.30;1.00
19924;DHT22;10124;53.068;18.224;2022-08-19T05:48:05;21.40;1.00
19924;DHT22;10124;53.068;18.224;2022-08-19T05:50:32;21.60;99.90
19924;DHT22;10124;53.068;18.224;2022-08-19T05:52:59;21.70;99.90
19924;DHT22;10124;53.068;18.224;2022-08-19T05:55:27;21.80;99.90
19924;DHT22;10124;53.068;18.224;2022-08-19T05:57:55;22.00;44.40
19924;DHT22;10124;53.068;18.224;2022-08-19T06:00:23;22.00;65.30
19924;DHT22;10124;53.068;18.224;2022-08-19T06:02:51;22.10;1.00
19924;DHT22;10124;53.068;18.224;2022-08-19T06:05:19;22.30;1.00
19924;DHT22;10124;53.068;18.224;2022-08-19T06:07:47;22.50;1.00
19924;DHT22;10124;53.068;18.224;2022-08-19T06:10:14;22.70;1.00
19924;DHT22;10124;53.068;18.224;2022-08-19T06:12:42;23.00;1.00
19924;DHT22;10124;53.068;18.224;2022-08-19T06:15:22;23.40;1.00
19924;DHT22;10124;53.068;18.224;2022-08-19T06:17:53;23.70;97.80
19924;DHT22;10124;53.068;18.224;2022-08-19T06:20:26;24.00;13.30
19924;DHT22;10124;53.068;18.224;2022-08-19T06:23:13;24.10;1.00
19924;DHT22;10124;53.068;18.224;2022-08-19T06:25:43;24.60;1.00
19924;DHT22;10124;53.068;18.224;2022-08-19T06:28:11;25.10;1.00
19924;DHT22;10124;53.068;18.224;2022-08-19T06:30:41;25.20;1.00
19924;DHT22;10124;53.068;18.224;2022-08-19T06:33:09;25.50;1.00
19924;DHT22;10124;53.068;18.224;2022-08-19T06:35:40;25.70;1.00
19924;DHT22;10124;53.068;18.224;2022-08-19T06:38:09;25.90;1.00
19924;DHT22;10124;53.068;18.224;2022-08-19T06:40:36;26.30;1.00
19924;DHT22;10124;53.068;18.224;2022-08-19T06:43:05;26.70;1.00
19924;DHT22;10124;53.068;18.224;2022-08-19T06:45:37;26.60;1.00
19924;DHT22;10124;53.068;18.224;2022-08-19T06:48:06;26.60;1.00
19924;DHT22;10124;53.068;18.224;2022-08-19T06:50:37;26.70;1.00
19924;DHT22;10124;53.068;18.224;2022-08-19T06:53:08;26.60;1.00
19924;DHT22;10124;53.068;18.224;2022-08-19T06:55:37;26.60;1.00
19924;DHT22;10124;53.068;18.224;2022-08-19T06:58:05;26.50;1.00
19924;DHT22;10124;53.068;18.224;2022-08-19T07:00:35;26.70;1.00
19924;DHT22;10124;53.068;18.224;2022-08-19T07:03:03;26.90;1.00
19924;DHT22;10124;53.068;18.224;2022-08-19T07:05:41;27.30;1.00
19924;DHT22;10124;53.068;18.224;2022-08-19T07:08:13;27.60;1.00
19924;DHT22;10124;53.068;18.224;2022-08-19T07:10:45;28.00;1.00
19924;DHT22;10124;53.068;18.224;2022-08-19T07:13:13;28.30;1.00
19924;DHT22;10124;53.068;18.224;2022-08-19T07:15:41;28.70;1.00
19924;DHT22;10124;53.068;18.224;2022-08-19T07:18:09;28.60;1.00
19924;DHT22;10124;53.068;18.224;2022-08-19T07:20:39;28.60;1.00
19924;DHT22;10124;53.068;18.224;2022-08-19T07:23:09;28.90;1.00
19924;DHT22;10124;53.068;18.224;2022-08-19T07:25:44;29.20;1.00
19924;DHT22;10124;53.068;18.224;2022-08-19T07:28:19;29.60;1.00
19924;DHT22;10124;53.068;18.224;2022-08-19T07:30:52;29.70;1.00
19924;DHT22;10124;53.068;18.224;2022-08-19T07:33:23;29.60;1.00
19924;DHT22;10124;53.068;18.224;2022-08-19T07:35:54;29.80;1.00
19924;DHT22;10124;53.068;18.224;2022-08-19T07:38:22;29.80;1.00
19924;DHT22;10124;53.068;18.224;2022-08-19T07:40:50;29.70;1.00
19924;DHT22;10124;53.068;18.224;2022-08-19T07:43:19;29.80;1.00
19924;DHT22;10124;53.068;18.224;2022-08-19T07:45:49;30.30;1.00
19924;DHT22;10124;53.068;18.224;2022-08-19T07:48:17;30.80;1.00
19924;DHT22;10124;53.068;18.224;2022-08-19T07:50:45;31.10;1.00
19924;DHT22;10124;53.068;18.224;2022-08-19T07:53:12;31.60;1.00
19924;DHT22;10124;53.068;18.224;2022-08-19T07:55:40;32.20;1.00
19924;DHT22;10124;53.068;18.224;2022-08-19T07:58:17;32.80;1.00
19924;DHT22;10124;53.068;18.224;2022-08-19T08:00:47;33.00;1.00
19924;DHT22;10124;53.068;18.224;2022-08-19T08:03:19;33.40;1.00
19924;DHT22;10124;53.068;18.224;2022-08-19T08:05:47;33.60;1.00
19924;DHT22;10124;53.068;18.224;2022-08-19T08:08:34;33.70;1.00
19924;DHT22;10124;53.068;18.224;2022-08-19T08:11:20;33.90;1.00
19924;DHT22;10124;53.068;18.224;2022-08-19T08:13:50;34.50;1.00
19924;DHT22;10124;53.068;18.224;2022-08-19T08:16:35;34.70;1.00
19924;DHT22;10124;53.068;18.224;2022-08-19T08:19:14;35.00;1.00
19924;DHT22;10124;53.068;18.224;2022-08-19T08:21:57;35.20;1.00
19924;DHT22;10124;53.068;18.224;2022-08-19T08:24:27;35.60;1.00
19924;DHT22;10124;53.068;18.224;2022-08-19T08:26:59;35.10;1.00
19924;DHT22;10124;53.068;18.224;2022-08-19T08:29:29;34.70;1.00
19924;DHT22;10124;53.068;18.224;2022-08-19T08:32:01;34.50;1.00
19924;DHT22;10124;53.068;18.224;2022-08-19T08:34:42;33.80;1.00
19924;DHT22;10124;53.068;18.224;2022-08-19T08:37:10;34.10;1.00
19924;DHT22;10124;53.068;18.224;2022-08-19T08:39:42;34.30;1.00
19924;DHT22;10124;53.068;18.224;2022-08-19T08:42:19;34.40;1.00
19924;DHT22;10124;53.068;18.224;2022-08-19T08:45:10;34.10;1.00
19924;DHT22;10124;53.068;18.224;2022-08-19T08:47:45;34.20;1.00
19924;DHT22;10124;53.068;18.224;2022-08-19T08:50:38;34.90;1.00
19924;DHT22;10124;53.068;18.224;2022-08-19T08:53:08;34.50;1.00
19924;DHT22;10124;53.068;18.224;2022-08-19T08:55:37;34.10;1.00
19924;DHT22;10124;53.068;18.224;2022-08-19T08:58:13;34.10;1.00
19924;DHT22;10124;53.068;18.224;2022-08-19T09:00:46;33.80;1.00
19924;DHT22;10124;53.068;18.224;2022-08-19T09:03:21;33.50;1.00
19924;DHT22;10124;53.068;18.224;2022-08-19T09:06:14;33.50;1.00
19924;DHT22;10124;53.068;18.224;2022-08-19T09:12:10;34.40;1.00
19924;DHT22;10124;53.068;18.224;2022-08-19T09:14:52;35.10;1.00
19924;DHT22;10124;53.068;18.224;2022-08-19T09:17:24;35.70;1.00
19924;DHT22;10124;53.068;18.224;2022-08-19T09:19:57;35.80;1.00
19924;DHT22;10124;53.068;18.224;2022-08-19T09:22:25;36.10;1.00
19924;DHT22;10124;53.068;18.224;2022-08-19T09:24:54;36.30;1.00
19924;DHT22;10124;53.068;18.224;2022-08-19T09:27:24;36.30;1.00
19924;DHT22;10124;53.068;18.224;2022-08-19T09:30:24;36.00;1.00
19924;DHT22;10124;53.068;18.224;2022-08-19T09:32:53;35.80;1.00
19924;DHT22;10124;53.068;18.224;2022-08-19T09:35:25;35.60;1.00
19924;DHT22;10124;53.068;18.224;2022-08-19T09:37:56;36.20;1.00
19924;DHT22;10124;53.068;18.224;2022-08-19T09:40:27;36.20;1.00
19924;DHT22;10124;53.068;18.224;2022-08-19T09:42:57;35.90;1.00
19924;DHT22;10124;53.068;18.224;2022-08-19T09:45:28;35.00;1.00
19924;DHT22;10124;53.068;18.224;2022-08-19T09:47:57;35.10;1.00
19924;DHT22;10124;53.068;18.224;2022-08-19T09:50:24;35.50;1.00
19924;DHT22;10124;53.068;18.224;2022-08-19T09:52:52;35.80;1.00
19924;DHT22;10124;53.068;18.224;2022-08-19T09:55:25;36.30;1.00
19924;DHT22;10124;53.068;18.224;2022-08-19T09:58:01;36.60;1.00
19924;DHT22;10124;53.068;18.224;2022-08-19T10:00:30;37.10;1.00
19924;DHT22;10124;53.068;18.224;2022-08-19T10:02:58;36.20;1.00
19924;DHT22;10124;53.068;18.224;2022-08-19T10:05:28;36.00;1.00
19924;DHT22;10124;53.068;18.224;2022-08-19T10:08:17;36.10;1.00
19924;DHT22;10124;53.068;18.224;2022-08-19T10:10:48;36.20;1.00
19924;DHT22;10124;53.068;18.224;2022-08-19T10:13:19;36.00;1.00
19924;DHT22;10124;53.068;18.224;2022-08-19T10:16:02;35.30;1.00
19924;DHT22;10124;53.068;18.224;2022-08-19T10:18:33;34.70;1.00
19924;DHT22;10124;53.068;18.224;2022-08-19T10:21:08;34.30;1.00
19924;DHT22;10124;53.068;18.224;2022-08-19T10:23:39;35.00;1.00
19924;DHT22;10124;53.068;18.224;2022-08-19T10:26:07;35.60;1.00
19924;DHT22;10124;53.068;18.224;2022-08-19T10:28:36;36.30;1.00
19924;DHT22;10124;53.068;18.224;2022-08-19T10:31:16;36.90;1.00
19924;DHT22;10124;53.068;18.224;2022-08-19T10:33:47;37.80;1.00
19924;DHT22;10124;53.068;18.224;2022-08-19T10:36:22;37.80;1.00
19924;DHT22;10124;53.068;18.224;2022-08-19T10:38:53;36.90;1.00
19924;DHT22;10124;53.068;18.224;2022-08-19T10:41:29;36.20;1.00
19924;DHT22;10124;53.068;18.224;2022-08-19T10:44:00;35.80;1.00
19924;DHT22;10124;53.068;18.224;2022-08-19T10:46:32;35.60;1.00
19924;DHT22;10124;53.068;18.224;2022-08-19T10:49:01;35.10;1.00
19924;DHT22;10124;53.068;18.224;2022-08-19T10:51:29;35.00;1.00
19924;DHT22;10124;53.068;18.224;2022-08-19T10:54:16;34.80;1.00
19924;DHT22;10124;53.068;18.224;2022-08-19T10:56:59;34.30;1.00
19924;DHT22;10124;53.068;18.224;2022-08-19T10:59:29;34.60;1.00
19924;DHT22;10124;53.068;18.224;2022-08-19T11:02:05;34.60;1.00
19924;DHT22;10124;53.068;18.224;2022-08-19T11:04:33;35.40;1.00
19924;DHT22;10124;53.068;18.224;2022-08-19T11:07:02;36.50;1.00
19924;DHT22;10124;53.068;18.224;2022-08-19T11:09:31;37.80;1.00
19924;DHT22;10124;53.068;18.224;2022-08-19T11:12:01;38.60;1.00
19924;DHT22;10124;53.068;18.224;2022-08-19T11:14:31;39.10;1.00
19924;DHT22;10124;53.068;18.224;2022-08-19T11:17:03;39.50;1.00
19924;DHT22;10124;53.068;18.224;2022-08-19T11:19:31;39.50;1.00
19924;DHT22;10124;53.068;18.224;2022-08-19T11:21:58;39.60;1.00
19924;DHT22;10124;53.068;18.224;2022-08-19T11:24:31;39.80;1.00
19924;DHT22;10124;53.068;18.224;2022-08-19T11:27:06;40.20;1.00
19924;DHT22;10124;53.068;18.224;2022-08-19T11:29:39;39.80;1.00
19924;DHT22;10124;53.068;18.224;2022-08-19T11:32:09;40.00;1.00
19924;DHT22;10124;53.068;18.224;2022-08-19T11:34:39;40.50;1.00
19924;DHT22;10124;53.068;18.224;2022-08-19T11:37:07;40.80;1.00
19924;DHT22;10124;53.068;18.224;2022-08-19T11:39:36;40.90;1.00
19924;DHT22;10124;53.068;18.224;2022-08-19T11:42:06;40.80;1.00
19924;DHT22;10124;53.068;18.224;2022-08-19T11:44:55;40.40;1.00
19924;DHT22;10124;53.068;18.224;2022-08-19T11:47:23;40.40;1.00
19924;DHT22;10124;53.068;18.224;2022-08-19T11:49:51;40.50;1.00
19924;DHT22;10124;53.068;18.224;2022-08-19T11:52:21;40.70;1.00
19924;DHT22;10124;53.068;18.224;2022-08-19T11:54:51;40.50;1.00
19924;DHT22;10124;53.068;18.224;2022-08-19T11:57:25;40.30;1.00
19924;DHT22;10124;53.068;18.224;2022-08-19T11:59:52;39.70;1.00
19924;DHT22;10124;53.068;18.224;2022-08-19T12:02:20;39.80;1.00
19924;DHT22;10124;53.068;18.224;2022-08-19T12:04:49;40.00;1.00
19924;DHT22;10124;53.068;18.224;2022-08-19T12:07:17;39.90;1.00
19924;DHT22;10124;53.068;18.224;2022-08-19T12:09:44;40.10;1.00
19924;DHT22;10124;53.068;18.224;2022-08-19T12:12:14;40.10;1.00
19924;DHT22;10124;53.068;18.224;2022-08-19T12:14:42;39.80;1.00
19924;DHT22;10124;53.068;18.224;2022-08-19T12:17:10;39.60;1.00
19924;DHT22;10124;53.068;18.224;2022-08-19T12:19:40;40.10;1.00
19924;DHT22;10124;53.068;18.224;2022-08-19T12:22:09;39.90;1.00
19924;DHT22;10124;53.068;18.224;2022-08-19T12:24:36;40.00;1.00
19924;DHT22;10124;53.068;18.224;2022-08-19T12:27:04;40.00;1.00
19924;DHT22;10124;53.068;18.224;2022-08-19T12:29:35;40.50;1.00
19924;DHT22;10124;53.068;18.224;2022-08-19T12:32:02;40.70;1.00
19924;DHT22;10124;53.068;18.224;2022-08-19T12:34:32;40.50;1.00
19924;DHT22;10124;53.068;18.224;2022-08-19T12:37:02;40.60;1.00
19924;DHT22;10124;53.068;18.224;2022-08-19T12:39:40;40.00;1.00
19924;DHT22;10124;53.068;18.224;2022-08-19T12:42:14;40.60;1.00
19924;DHT22;10124;53.068;18.224;2022-08-19T12:44:45;40.40;1.00
19924;DHT22;10124;53.068;18.224;2022-08-19T12:47:14;40.70;1.00
19924;DHT22;10124;53.068;18.224;2022-08-19T12:49:42;40.70;1.00
19924;DHT22;10124;53.068;18.224;2022-08-19T12:52:24;40.60;1.00
19924;DHT22;10124;53.068;18.224;2022-08-19T12:54:53;40.10;1.00
19924;DHT22;10124;53.068;18.224;2022-08-19T12:57:24;39.90;1.00
19924;DHT22;10124;53.068;18.224;2022-08-19T13:00:06;40.40;1.00
19924;DHT22;10124;53.068;18.224;2022-08-19T13:02:39;40.20;1.00
19924;DHT22;10124;53.068;18.224;2022-08-19T13:05:09;39.80;1.00
19924;DHT22;10124;53.068;18.224;2022-08-19T13:07:38;40.10;1.00
19924;DHT22;10124;53.068;18.224;2022-08-19T13:10:09;40.10;1.00
19924;DHT22;10124;53.068;18.224;2022-08-19T13:12:39;39.90;1.00
19924;DHT22;10124;53.068;18.224;2022-08-19T13:15:09;39.60;1.00
19924;DHT22;10124;53.068;18.224;2022-08-19T13:17:38;40.00;1.00
19924;DHT22;10124;53.068;18.224;2022-08-19T13:20:09;40.10;1.00
19924;DHT22;10124;53.068;18.224;2022-08-19T13:22:40;40.10;1.00
19924;DHT22;10124;53.068;18.224;2022-08-19T13:25:14;40.70;1.00
19924;DHT22;10124;53.068;18.224;2022-08-19T13:27:51;40.50;1.00
19924;DHT22;10124;53.068;18.224;2022-08-19T13:31:22;39.70;1.00
19924;DHT22;10124;53.068;18.224;2022-08-19T13:34:09;40.00;1.00
19924;DHT22;10124;53.068;18.224;2022-08-19T13:36:38;40.50;1.00
19924;DHT22;10124;53.068;18.224;2022-08-19T13:39:07;40.20;1.00
19924;DHT22;10124;53.068;18.224;2022-08-19T13:41:37;40.00;1.00
19924;DHT22;10124;53.068;18.224;2022-08-19T13:44:04;39.70;1.00
19924;DHT22;10124;53.068;18.224;2022-08-19T13:46:34;39.60;1.00
19924;DHT22;10124;53.068;18.224;2022-08-19T13:49:01;40.00;1.00
19924;DHT22;10124;53.068;18.224;2022-08-19T13:51:28;39.70;1.00
19924;DHT22;10124;53.068;18.224;2022-08-19T13:53:56;39.40;1.00
19924;DHT22;10124;53.068;18.224;2022-08-19T13:56:23;39.40;1.00
19924;DHT22;10124;53.068;18.224;2022-08-19T13:58:53;38.70;1.00
19924;DHT22;10124;53.068;18.224;2022-08-19T14:01:25;39.40;1.00
19924;DHT22;10124;53.068;18.224;2022-08-19T14:03:54;39.30;1.00
19924;DHT22;10124;53.068;18.224;2022-08-19T14:06:22;39.20;1.00
19924;DHT22;10124;53.068;18.224;2022-08-19T14:08:49;39.10;1.00
19924;DHT22;10124;53.068;18.224;2022-08-19T14:11:17;39.30;1.00
19924;DHT22;10124;53.068;18.224;2022-08-19T14:13:44;39.20;1.00
19924;DHT22;10124;53.068;18.224;2022-08-19T14:16:14;39.50;1.00
19924;DHT22;10124;53.068;18.224;2022-08-19T14:18:42;39.90;1.00
19924;DHT22;10124;53.068;18.224;2022-08-19T14:21:16;39.40;1.00
19924;DHT22;10124;53.068;18.224;2022-08-19T14:23:45;39.60;1.00
19924;DHT22;10124;53.068;18.224;2022-08-19T14:26:17;39.70;1.00
19924;DHT22;10124;53.068;18.224;2022-08-19T14:28:45;38.60;1.00
19924;DHT22;10124;53.068;18.224;2022-08-19T14:31:14;38.30;1.00
19924;DHT22;10124;53.068;18.224;2022-08-19T14:33:47;37.70;1.00
19924;DHT22;10124;53.068;18.224;2022-08-19T14:36:15;37.90;1.00
19924;DHT22;10124;53.068;18.224;2022-08-19T14:38:43;38.00;1.00
19924;DHT22;10124;53.068;18.224;2022-08-19T14:41:13;38.20;1.00
19924;DHT22;10124;53.068;18.224;2022-08-19T14:43:44;37.80;1.00
19924;DHT22;10124;53.068;18.224;2022-08-19T14:46:18;37.50;1.00
19924;DHT22;10124;53.068;18.224;2022-08-19T14:48:49;37.60;1.00
19924;DHT22;10124;53.068;18.224;2022-08-19T14:51:20;37.80;1.00
19924;DHT22;10124;53.068;18.224;2022-08-19T14:53:50;37.70;1.00
19924;DHT22;10124;53.068;18.224;2022-08-19T14:56:21;37.40;1.00
19924;DHT22;10124;53.068;18.224;2022-08-19T14:58:49;36.80;1.00
19924;DHT22;10124;53.068;18.224;2022-08-19T15:01:21;36.60;1.00
19924;DHT22;10124;53.068;18.224;2022-08-19T15:03:50;36.20;1.00
19924;DHT22;10124;53.068;18.224;2022-08-19T15:06:22;36.00;1.00
19924;DHT22;10124;53.068;18.224;2022-08-19T15:08:51;35.60;1.00
19924;DHT22;10124;53.068;18.224;2022-08-19T15:11:23;35.20;1.00
19924;DHT22;10124;53.068;18.224;2022-08-19T15:13:52;34.60;1.00
19924;DHT22;10124;53.068;18.224;2022-08-19T15:16:22;34.50;1.00
19924;DHT22;10124;53.068;18.224;2022-08-19T15:18:52;34.60;1.00
19924;DHT22;10124;53.068;18.224;2022-08-19T15:21:22;34.40;1.00
19924;DHT22;10124;53.068;18.224;2022-08-19T15:23:56;34.20;1.00
19924;DHT22;10124;53.068;18.224;2022-08-19T15:26:24;34.20;1.00
19924;DHT22;10124;53.068;18.224;2022-08-19T15:29:00;33.90;1.00
19924;DHT22;10124;53.068;18.224;2022-08-19T15:31:29;33.70;1.00
19924;DHT22;10124;53.068;18.224;2022-08-19T15:34:04;33.80;1.00
19924;DHT22;10124;53.068;18.224;2022-08-19T15:36:36;33.90;1.00
19924;DHT22;10124;53.068;18.224;2022-08-19T15:39:04;33.70;1.00
19924;DHT22;10124;53.068;18.224;2022-08-19T15:41:34;33.40;1.00
19924;DHT22;10124;53.068;18.224;2022-08-19T15:44:11;33.30;1.00
19924;DHT22;10124;53.068;18.224;2022-08-19T15:46:42;33.30;1.00
19924;DHT22;10124;53.068;18.224;2022-08-19T15:49:12;32.90;1.00
19924;DHT22;10124;53.068;18.224;2022-08-19T15:51:42;32.80;1.00
19924;DHT22;10124;53.068;18.224;2022-08-19T15:54:13;32.70;1.00
19924;DHT22;10124;53.068;18.224;2022-08-19T15:56:43;32.50;1.00
19924;DHT22;10124;53.068;18.224;2022-08-19T15:59:29;32.40;1.00
19924;DHT22;10124;53.068;18.224;2022-08-19T16:02:20;32.40;1.00